createdAt,value
2019-03-09T00:01:28.463Z,2.77
2019-03-09T00:04:03.206Z,2.93
2019-03-09T00:06:39.069Z,2.63
2019-03-09T00:09:11.689Z,2.87
2019-03-09T00:11:45.712Z,2.70
2019-03-09T00:14:19.676Z,2.70
2019-03-09T00:16:52.360Z,3.35
2019-03-09T00:19:27.963Z,2.63
2019-03-09T00:22:01.784Z,2.80
2019-03-09T00:24:41.588Z,2.40
2019-03-09T00:27:36.367Z,2.57
2019-03-09T00:30:29.960Z,2.67
2019-03-09T00:33:02.722Z,2.83
2019-03-09T00:35:37.194Z,2.70
2019-03-09T00:38:11.659Z,2.90
2019-03-09T00:40:44.584Z,2.87
2019-03-09T00:43:17.514Z,2.70
2019-03-09T00:45:50.525Z,2.63
2019-03-09T00:48:24.383Z,2.57
2019-03-09T00:50:56.772Z,3.20
2019-03-09T00:53:30.630Z,2.83
2019-03-09T00:56:04.963Z,2.80
2019-03-09T00:58:37.565Z,2.58
2019-03-09T01:01:10.763Z,3.13
2019-03-09T01:03:43.336Z,3.10
2019-03-09T01:06:16.059Z,2.70
2019-03-09T01:08:49.079Z,3.03
2019-03-09T01:11:21.623Z,3.45
2019-03-09T01:13:54.218Z,3.33
2019-03-09T01:16:27.271Z,3.27
2019-03-09T01:18:59.823Z,3.60
2019-03-09T01:21:32.525Z,3.20
2019-03-09T01:24:05.592Z,3.47
2019-03-09T01:26:38.159Z,3.57
2019-03-09T01:29:11.098Z,3.27
2019-03-09T01:31:44.910Z,3.50
2019-03-09T01:34:17.494Z,3.60
2019-03-09T01:36:50.091Z,3.30
2019-03-09T01:39:23.087Z,3.30
2019-03-09T01:41:55.658Z,3.55
2019-03-09T01:44:28.211Z,3.60
2019-03-09T01:47:01.224Z,3.67
2019-03-09T01:49:33.745Z,3.40
2019-03-09T01:52:07.120Z,3.50
2019-03-09T01:54:40.866Z,3.60
2019-03-09T01:57:14.357Z,3.43
2019-03-09T01:59:47.765Z,3.30
2019-03-09T02:02:21.554Z,4.17
2019-03-09T02:04:54.179Z,3.30
2019-03-09T02:07:27.552Z,3.10
2019-03-09T02:10:00.422Z,2.97
2019-03-09T02:12:35.419Z,2.90
2019-03-09T02:15:08.644Z,2.80
2019-03-09T02:17:41.779Z,3.00
2019-03-09T02:20:15.286Z,2.63
2019-03-09T02:22:48.340Z,2.83
2019-03-09T02:25:20.944Z,3.37
2019-03-09T02:27:53.486Z,3.60
2019-03-09T02:30:26.151Z,3.13
2019-03-09T02:32:59.129Z,3.70
2019-03-09T02:35:31.678Z,3.17
2019-03-09T02:38:24.877Z,3.60
2019-03-09T02:40:57.679Z,3.85
2019-03-09T02:43:30.254Z,3.65
2019-03-09T02:46:02.799Z,2.97
2019-03-09T02:48:35.408Z,3.57
2019-03-09T02:51:09.246Z,3.57
2019-03-09T02:53:43.376Z,3.20
2019-03-09T02:56:16.663Z,3.90
2019-03-09T02:58:49.722Z,3.33
2019-03-09T03:01:35.372Z,3.97
2019-03-09T03:04:08.826Z,3.60
2019-03-09T03:06:41.662Z,3.50
2019-03-09T03:09:15.466Z,4.00
2019-03-09T03:11:48.849Z,3.90
2019-03-09T03:14:23.127Z,3.53
2019-03-09T03:16:55.679Z,3.83
2019-03-09T03:19:28.445Z,4.40
2019-03-09T03:22:01.731Z,4.20
2019-03-09T03:24:34.407Z,4.43
2019-03-09T03:27:07.036Z,4.87
2019-03-09T03:29:41.590Z,5.00
2019-03-09T03:32:14.163Z,5.70
2019-03-09T03:34:46.733Z,5.30
2019-03-09T03:37:19.546Z,5.40
2019-03-09T03:39:52.157Z,5.23
2019-03-09T03:42:24.938Z,5.47
2019-03-09T03:44:57.930Z,5.67
2019-03-09T03:47:30.418Z,6.13
2019-03-09T03:50:03.110Z,6.10
2019-03-09T03:52:36.050Z,5.90
2019-03-09T03:55:08.732Z,5.93
2019-03-09T03:57:41.171Z,6.33
2019-03-09T04:00:17.209Z,5.60
2019-03-09T04:02:49.876Z,5.78
2019-03-09T04:05:25.574Z,5.90
2019-03-09T04:07:59.951Z,5.57
2019-03-09T04:10:33.413Z,5.17
2019-03-09T04:13:05.880Z,5.57
2019-03-09T04:15:39.972Z,5.10
2019-03-09T04:18:12.404Z,5.30
2019-03-09T04:20:45.051Z,5.77
2019-03-09T04:23:17.748Z,5.70
2019-03-09T04:25:50.432Z,6.33
2019-03-09T04:28:23.096Z,6.20
2019-03-09T04:30:55.898Z,6.35
2019-03-09T04:33:29.229Z,5.60
2019-03-09T04:36:01.667Z,6.70
2019-03-09T04:38:34.660Z,6.83
2019-03-09T04:41:07.283Z,7.40
2019-03-09T04:43:40.004Z,7.67
2019-03-09T04:46:12.886Z,7.33
2019-03-09T04:48:45.440Z,6.80
2019-03-09T04:51:18.055Z,6.07
2019-03-09T04:53:51.082Z,5.80
2019-03-09T04:56:23.607Z,6.40
2019-03-09T04:58:56.154Z,6.20
2019-03-09T05:01:29.243Z,6.10
2019-03-09T05:04:40.929Z,6.45
2019-03-09T05:07:26.107Z,4.97
2019-03-09T05:10:21.056Z,4.73
2019-03-09T05:13:01.183Z,5.33
2019-03-09T05:15:34.078Z,5.47
2019-03-09T05:18:06.994Z,6.10
2019-03-09T05:20:39.450Z,5.80
2019-03-09T05:23:12.133Z,6.50
2019-03-09T05:25:45.923Z,6.83
2019-03-09T05:28:18.764Z,7.10
2019-03-09T05:30:52.732Z,7.27
2019-03-09T05:33:25.304Z,7.03
2019-03-09T05:35:57.786Z,7.10
2019-03-09T05:38:30.651Z,8.27
2019-03-09T05:41:03.262Z,7.90
2019-03-09T05:43:35.770Z,8.03
2019-03-09T05:46:08.838Z,7.90
2019-03-09T05:48:41.533Z,8.10
2019-03-09T05:51:14.184Z,9.00
2019-03-09T05:53:47.247Z,8.50
2019-03-09T05:56:19.689Z,8.37
2019-03-09T05:58:52.767Z,7.87
2019-03-09T06:01:25.788Z,8.53
2019-03-09T06:04:00.242Z,9.53
2019-03-09T06:06:32.884Z,9.80
2019-03-09T06:09:06.696Z,9.43
2019-03-09T06:11:39.251Z,9.63
2019-03-09T06:14:12.535Z,10.10
2019-03-09T06:16:46.371Z,10.17
2019-03-09T06:19:19.072Z,9.90
2019-03-09T06:21:51.861Z,10.10
2019-03-09T06:24:25.075Z,10.50
2019-03-09T06:26:57.574Z,9.47
2019-03-09T06:29:30.293Z,8.67
2019-03-09T06:32:42.935Z,9.83
2019-03-09T06:35:27.302Z,9.80
2019-03-09T06:38:36.795Z,8.67
2019-03-09T06:41:41.533Z,9.68
2019-03-09T06:44:15.347Z,9.10
2019-03-09T06:46:50.046Z,8.97
2019-03-09T06:49:22.681Z,8.53
2019-03-09T06:51:55.378Z,8.50
2019-03-09T06:54:30.557Z,9.07
2019-03-09T06:57:03.113Z,7.97
2019-03-09T06:59:36.624Z,7.87
2019-03-09T07:02:10.192Z,8.93
2019-03-09T07:04:42.913Z,8.77
2019-03-09T07:07:16.391Z,8.70
2019-03-09T07:09:48.920Z,9.20
2019-03-09T07:12:21.490Z,9.37
2019-03-09T07:15:22.667Z,9.20
2019-03-09T07:18:01.801Z,9.60
2019-03-09T07:20:35.740Z,10.32
2019-03-09T07:23:09.215Z,9.37
2019-03-09T07:25:41.802Z,8.50
2019-03-09T07:28:17.703Z,8.43
2019-03-09T07:30:53.761Z,8.70
2019-03-09T07:33:26.667Z,8.80
2019-03-09T07:36:00.829Z,8.00
2019-03-09T07:38:33.651Z,8.13
2019-03-09T07:41:08.955Z,9.13
2019-03-09T07:43:41.664Z,8.50
2019-03-09T07:46:15.463Z,8.53
2019-03-09T07:48:51.177Z,8.45
2019-03-09T07:51:23.838Z,7.63
2019-03-09T07:53:58.929Z,7.70
2019-03-09T07:56:31.523Z,8.00
2019-03-09T07:59:04.219Z,7.50
2019-03-09T08:01:37.073Z,7.70
2019-03-09T08:04:10.531Z,7.72
2019-03-09T08:06:43.133Z,7.40
2019-03-09T08:09:32.712Z,7.75
2019-03-09T08:12:06.281Z,7.20
2019-03-09T08:14:39.771Z,7.03
2019-03-09T08:17:14.402Z,7.10
2019-03-09T08:19:49.274Z,7.17
2019-03-09T08:22:23.005Z,6.87
2019-03-09T08:24:57.953Z,6.87
2019-03-09T08:27:32.458Z,6.63
2019-03-09T08:30:13.791Z,6.70
2019-03-09T08:32:48.266Z,7.07
2019-03-09T08:35:21.641Z,6.53
2019-03-09T08:37:54.587Z,7.20
2019-03-09T08:40:28.155Z,6.90
2019-03-09T08:43:01.843Z,7.28
2019-03-09T08:45:36.516Z,6.83
2019-03-09T08:48:32.191Z,7.43
2019-03-09T08:51:25.040Z,6.60
2019-03-09T08:54:15.504Z,6.53
2019-03-09T08:57:09.666Z,5.53
2019-03-09T09:00:04.145Z,5.80
2019-03-09T09:02:58.802Z,5.57
2019-03-09T09:05:34.795Z,5.47
2019-03-09T09:08:10.290Z,4.90
2019-03-09T09:10:44.454Z,5.53
2019-03-09T09:13:17.913Z,4.47
2019-03-09T09:15:51.354Z,4.50
2019-03-09T09:18:25.185Z,4.33
2019-03-09T09:20:58.107Z,4.47
2019-03-09T09:23:31.309Z,4.55
2019-03-09T09:26:19.978Z,4.37
2019-03-09T09:28:54.782Z,4.03
2019-03-09T09:31:30.992Z,4.10
2019-03-09T09:34:03.751Z,3.97
2019-03-09T09:36:36.800Z,4.17
2019-03-09T09:39:12.855Z,4.80
2019-03-09T09:41:45.755Z,4.28
2019-03-09T09:44:21.511Z,4.30
2019-03-09T09:46:54.164Z,3.50
2019-03-09T09:49:27.214Z,3.50
2019-03-09T09:52:00.265Z,3.40
2019-03-09T09:54:34.959Z,3.37
2019-03-09T09:57:08.846Z,3.27
2019-03-09T09:59:42.755Z,3.37
2019-03-09T10:02:16.563Z,3.27
2019-03-09T10:04:51.809Z,3.93
2019-03-09T10:07:25.397Z,3.40
2019-03-09T10:09:58.625Z,2.87
2019-03-09T10:12:34.491Z,3.57
2019-03-09T10:15:16.700Z,3.53
2019-03-09T10:17:53.419Z,2.87
2019-03-09T10:20:27.589Z,3.30
2019-03-09T10:23:04.567Z,3.10
2019-03-09T10:25:38.918Z,3.47
2019-03-09T10:28:16.507Z,3.83
2019-03-09T10:30:49.950Z,3.13
2019-03-09T10:33:30.947Z,3.40
2019-03-09T10:36:04.240Z,3.23
2019-03-09T10:38:37.661Z,3.23
2019-03-09T10:41:11.696Z,3.37
2019-03-09T10:43:44.346Z,3.13
2019-03-09T10:46:17.063Z,3.80
2019-03-09T10:48:50.505Z,3.47
2019-03-09T10:51:24.602Z,3.27
2019-03-09T10:53:58.370Z,2.93
2019-03-09T10:56:31.186Z,3.07
2019-03-09T10:59:05.145Z,3.03
2019-03-09T11:01:38.861Z,3.60
2019-03-09T11:04:27.018Z,3.12
2019-03-09T11:07:11.513Z,3.07
2019-03-09T11:09:45.539Z,2.80
2019-03-09T11:12:20.277Z,2.73
2019-03-09T11:14:56.960Z,2.57
2019-03-09T11:17:31.775Z,2.80
2019-03-09T11:20:05.504Z,2.80
2019-03-09T11:22:39.364Z,2.93
2019-03-09T11:25:15.240Z,2.53
2019-03-09T11:27:49.821Z,3.10
2019-03-09T11:30:27.744Z,3.33
2019-03-09T11:33:01.143Z,2.73
2019-03-09T11:35:33.739Z,2.73
2019-03-09T11:38:07.059Z,2.53
2019-03-09T11:40:40.345Z,2.80
2019-03-09T11:43:17.075Z,2.40
2019-03-09T11:45:50.838Z,2.00
2019-03-09T11:48:26.814Z,2.30
2019-03-09T11:51:07.259Z,2.40
2019-03-09T11:53:41.323Z,2.03
2019-03-09T11:56:15.900Z,2.70
2019-03-09T11:58:52.691Z,2.07
2019-03-09T12:01:26.343Z,1.80
2019-03-09T12:04:01.740Z,1.50
2019-03-09T12:06:35.906Z,1.77
2019-03-09T12:09:11.666Z,1.60
2019-03-09T12:11:59.447Z,1.53
2019-03-09T12:14:32.681Z,2.10
2019-03-09T12:17:12.684Z,1.70
2019-03-09T12:19:46.796Z,1.40
2019-03-09T12:22:21.079Z,1.62
2019-03-09T12:24:57.683Z,1.70
2019-03-09T12:27:31.904Z,1.67
2019-03-09T12:30:09.198Z,1.57
2019-03-09T12:32:43.886Z,1.53
2019-03-09T12:35:20.331Z,1.87
2019-03-09T12:37:55.355Z,1.80
2019-03-09T12:40:29.350Z,1.90
2019-03-09T12:43:03.509Z,2.00
2019-03-09T12:45:41.955Z,2.00
2019-03-09T12:48:21.002Z,1.90
2019-03-09T12:50:57.373Z,2.30
2019-03-09T12:53:33.618Z,1.70
2019-03-09T12:56:08.261Z,2.10
2019-03-09T12:58:41.200Z,2.47
2019-03-09T13:01:17.597Z,2.30
2019-03-09T13:03:55.200Z,2.37
2019-03-09T13:06:31.539Z,2.30
2019-03-09T13:09:08.308Z,2.13
2019-03-09T13:11:46.028Z,2.33
2019-03-09T13:14:21.237Z,2.63
2019-03-09T13:16:54.140Z,2.73
2019-03-09T13:19:27.694Z,2.60
2019-03-09T13:22:02.251Z,2.70
2019-03-09T13:24:37.092Z,3.73
2019-03-09T13:27:10.546Z,2.80
2019-03-09T13:29:47.066Z,3.53
2019-03-09T13:32:21.748Z,3.20
2019-03-09T13:34:55.384Z,4.20
2019-03-09T13:37:28.616Z,3.80
2019-03-09T13:40:01.816Z,3.63
2019-03-09T13:42:36.352Z,3.60
2019-03-09T13:45:15.606Z,5.18
2019-03-09T13:47:48.985Z,4.70
2019-03-09T13:50:22.724Z,4.63
2019-03-09T13:52:57.293Z,5.27
2019-03-09T13:55:31.136Z,5.33
2019-03-09T13:58:03.875Z,4.83
2019-03-09T14:00:40.692Z,5.40
2019-03-09T14:03:15.270Z,5.60
2019-03-09T14:05:48.747Z,5.30
2019-03-09T14:08:24.395Z,5.47
2019-03-09T14:10:57.679Z,6.57
2019-03-09T14:13:34.351Z,7.60
2019-03-09T14:16:08.522Z,6.93
2019-03-09T14:18:54.524Z,7.03
2019-03-09T14:21:27.461Z,7.97
2019-03-09T14:24:03.069Z,7.33
2019-03-09T14:26:44.018Z,6.37
2019-03-09T14:29:20.133Z,7.13
2019-03-09T14:31:55.060Z,7.60
2019-03-09T14:34:28.135Z,7.70
2019-03-09T14:37:06.747Z,7.03
2019-03-09T14:39:40.123Z,7.53
2019-03-09T14:42:13.018Z,6.27
2019-03-09T14:44:45.618Z,5.97
2019-03-09T14:47:18.171Z,6.17
2019-03-09T14:49:51.683Z,6.53
2019-03-09T14:52:25.361Z,6.27
2019-03-09T14:54:58.106Z,6.37
2019-03-09T14:57:31.309Z,5.93
2019-03-09T15:00:09.304Z,6.83
2019-03-09T15:02:43.830Z,6.30
2019-03-09T15:05:20.468Z,6.30
2019-03-09T15:08:00.647Z,6.12
2019-03-09T15:10:33.498Z,5.87
2019-03-09T15:13:09.963Z,7.50
2019-03-09T15:15:42.745Z,5.83
2019-03-09T15:18:16.461Z,5.30
2019-03-09T15:20:51.244Z,6.10
2019-03-09T15:23:24.263Z,6.37
2019-03-09T15:25:58.492Z,6.17
2019-03-09T15:28:32.442Z,5.60
2019-03-09T15:31:07.354Z,6.03
2019-03-09T15:33:52.295Z,6.65
2019-03-09T15:36:27.390Z,5.83
2019-03-09T15:39:01.940Z,5.70
2019-03-09T15:41:37.359Z,5.27
2019-03-09T15:44:11.611Z,5.77
2019-03-09T15:46:48.957Z,6.27
2019-03-09T15:49:25.078Z,5.10
2019-03-09T15:52:03.552Z,5.03
2019-03-09T15:54:44.766Z,4.17
2019-03-09T15:57:21.482Z,4.27
2019-03-09T15:59:57.209Z,4.77
2019-03-09T16:02:34.645Z,4.53
2019-03-09T16:05:08.297Z,4.03
2019-03-09T16:07:49.599Z,3.57
2019-03-09T16:10:27.107Z,3.07
2019-03-09T16:13:01.319Z,4.13
2019-03-09T16:15:35.206Z,3.43
2019-03-09T16:18:09.792Z,3.97
2019-03-09T16:20:42.919Z,3.90
2019-03-09T16:23:17.270Z,3.70
2019-03-09T16:25:59.908Z,4.10
2019-03-09T16:28:33.540Z,3.90
2019-03-09T16:31:07.948Z,3.97
2019-03-09T16:33:43.804Z,4.23
2019-03-09T16:36:20.119Z,3.13
2019-03-09T16:38:53.816Z,3.77
2019-03-09T16:41:26.552Z,2.37
2019-03-09T16:44:08.425Z,4.10
2019-03-09T16:46:43.738Z,2.57
2019-03-09T16:49:19.385Z,3.20
2019-03-09T16:51:54.210Z,2.00
2019-03-09T16:54:35.631Z,2.50
2019-03-09T16:57:11.974Z,1.50
2019-03-09T16:59:45.235Z,2.20
2019-03-09T17:02:27.556Z,1.70
2019-03-09T17:05:23.205Z,1.87
2019-03-09T17:08:15.571Z,2.40
2019-03-09T17:11:01.451Z,1.63
2019-03-09T17:13:37.500Z,1.70
2019-03-09T17:16:13.769Z,2.10
2019-03-09T17:18:46.787Z,2.30
2019-03-09T17:21:19.473Z,2.20
2019-03-09T17:23:53.003Z,2.20
2019-03-09T17:26:35.351Z,2.40
2019-03-09T17:29:08.300Z,1.90
2019-03-09T17:31:44.631Z,2.37
2019-03-09T17:34:19.100Z,2.03
2019-03-09T17:36:53.105Z,2.07
2019-03-09T17:39:30.983Z,2.03
2019-03-09T17:42:05.972Z,1.63
2019-03-09T17:44:41.148Z,2.40
2019-03-09T17:47:18.556Z,2.30
2019-03-09T17:49:53.563Z,2.40
2019-03-09T17:52:30.457Z,2.07
2019-03-09T17:55:07.937Z,2.47
2019-03-09T17:57:42.929Z,2.50
2019-03-09T18:00:28.406Z,2.10
2019-03-09T18:03:06.627Z,3.20
2019-03-09T18:05:41.206Z,2.63
2019-03-09T18:08:17.089Z,2.07
2019-03-09T18:10:57.476Z,2.30
2019-03-09T18:13:31.559Z,2.85
2019-03-09T18:16:08.407Z,2.27
2019-03-09T18:18:42.471Z,2.93
2019-03-09T18:21:15.286Z,2.17
2019-03-09T18:23:50.591Z,2.12
2019-03-09T18:26:23.293Z,2.60
2019-03-09T18:28:55.721Z,2.60
2019-03-09T18:31:29.433Z,2.60
2019-03-09T18:34:02.815Z,3.63
2019-03-09T18:36:35.958Z,2.70
2019-03-09T18:39:08.644Z,2.27
2019-03-09T18:41:45.394Z,2.67
2019-03-09T18:44:20.591Z,2.63
2019-03-09T18:46:58.799Z,2.85
2019-03-09T18:49:35.807Z,3.23
2019-03-09T18:52:14.610Z,2.40
2019-03-09T18:54:54.299Z,3.17
2019-03-09T18:57:30.846Z,2.53
2019-03-09T19:00:14.506Z,5.60
2019-03-09T19:02:50.403Z,2.70
2019-03-09T19:05:26.709Z,3.10
2019-03-09T19:07:59.680Z,2.50
2019-03-09T19:10:33.504Z,2.80
2019-03-09T19:13:08.212Z,2.67
2019-03-09T19:15:41.045Z,2.97
2019-03-09T19:18:14.871Z,3.53
2019-03-09T19:20:49.246Z,3.43
2019-03-09T19:23:22.607Z,3.20
2019-03-09T19:25:56.704Z,2.30
2019-03-09T19:28:31.163Z,2.83
2019-03-09T19:31:05.463Z,3.60
2019-03-09T19:33:39.546Z,3.10
2019-03-09T19:36:13.511Z,3.00
2019-03-09T19:38:58.695Z,3.20
2019-03-09T19:41:32.839Z,2.90
2019-03-09T19:44:09.194Z,2.83
2019-03-09T19:46:43.333Z,3.00
2019-03-09T19:49:55.076Z,2.83
2019-03-09T19:52:46.732Z,3.83
2019-03-09T19:55:25.759Z,3.37
2019-03-09T19:57:59.999Z,3.60
2019-03-09T20:00:35.464Z,3.13
2019-03-09T20:03:10.447Z,3.33
2019-03-09T20:05:43.765Z,3.67
2019-03-09T20:08:16.700Z,3.67
2019-03-09T20:10:50.801Z,3.47
2019-03-09T20:13:24.767Z,4.00
2019-03-09T20:15:59.160Z,3.23
2019-03-09T20:18:32.700Z,4.43
2019-03-09T20:21:11.647Z,4.05
2019-03-09T20:23:45.081Z,3.57
2019-03-09T20:26:21.125Z,3.50
2019-03-09T20:28:55.894Z,3.70
2019-03-09T20:31:32.072Z,3.20
2019-03-09T20:34:06.858Z,3.33
2019-03-09T20:36:41.052Z,3.55
2019-03-09T20:39:13.802Z,3.63
2019-03-09T20:41:46.549Z,3.47
2019-03-09T20:44:20.910Z,3.57
2019-03-09T20:46:55.095Z,3.57
2019-03-09T20:49:28.188Z,2.77
2019-03-09T20:52:00.916Z,3.30
2019-03-09T20:54:33.447Z,3.07
2019-03-09T20:57:08.428Z,2.80
2019-03-09T20:59:45.348Z,3.70
2019-03-09T21:02:18.861Z,3.27
2019-03-09T21:04:52.604Z,2.90
2019-03-09T21:07:27.294Z,2.73
2019-03-09T21:10:01.972Z,2.60
2019-03-09T21:12:36.079Z,2.57
2019-03-09T21:15:09.478Z,2.90
2019-03-09T21:17:44.858Z,2.87
2019-03-09T21:20:20.425Z,2.60
2019-03-09T21:22:54.509Z,2.90
2019-03-09T21:25:28.779Z,2.37
2019-03-09T21:28:14.753Z,2.47
2019-03-09T21:30:50.985Z,2.80
2019-03-09T21:33:26.423Z,2.33
2019-03-09T21:36:01.455Z,2.30
2019-03-09T21:38:36.364Z,2.60
2019-03-09T21:41:10.765Z,2.37
2019-03-09T21:43:44.994Z,3.10
2019-03-09T21:46:21.188Z,2.60
2019-03-09T21:48:55.470Z,3.00
2019-03-09T21:51:29.414Z,2.73
2019-03-09T21:54:03.068Z,2.87
2019-03-09T21:56:37.326Z,2.43
2019-03-09T21:59:10.574Z,2.70
2019-03-09T22:01:43.748Z,2.70
2019-03-09T22:04:18.331Z,2.87
2019-03-09T22:06:51.915Z,2.60
2019-03-09T22:09:27.014Z,3.03
2019-03-09T22:12:00.173Z,2.40
2019-03-09T22:14:32.869Z,2.73
2019-03-09T22:17:05.761Z,3.47
2019-03-09T22:19:45.579Z,3.27
2019-03-09T22:22:19.636Z,3.57
2019-03-09T22:24:53.671Z,3.23
2019-03-09T22:27:27.283Z,3.17
2019-03-09T22:30:03.767Z,3.37
2019-03-09T22:32:36.843Z,3.40
2019-03-09T22:35:15.706Z,3.47
2019-03-09T22:37:51.640Z,3.30
2019-03-09T22:40:25.615Z,2.93
2019-03-09T22:42:58.025Z,3.70
2019-03-09T22:45:31.785Z,3.17
2019-03-09T22:48:08.455Z,3.43
2019-03-09T22:50:41.966Z,3.43
2019-03-09T22:53:16.799Z,3.23
2019-03-09T22:55:49.651Z,3.63
2019-03-09T22:58:22.895Z,4.30
2019-03-09T23:00:57.931Z,4.27
2019-03-09T23:03:30.512Z,4.10
2019-03-09T23:06:05.101Z,4.50
2019-03-09T23:08:38.783Z,4.33
2019-03-09T23:11:12.138Z,4.70
2019-03-09T23:13:44.769Z,5.00
2019-03-09T23:16:17.883Z,5.27
2019-03-09T23:18:50.556Z,4.80
2019-03-09T23:21:23.519Z,5.90
2019-03-09T23:23:56.455Z,5.50
2019-03-09T23:26:29.208Z,5.60
2019-03-09T23:29:01.844Z,7.57
2019-03-09T23:31:35.152Z,5.87
2019-03-09T23:34:08.304Z,6.13
2019-03-09T23:36:41.223Z,6.93
2019-03-09T23:39:14.836Z,6.73
2019-03-09T23:41:50.239Z,6.57
2019-03-09T23:44:22.825Z,7.20
2019-03-09T23:46:55.846Z,7.50
2019-03-09T23:49:29.570Z,6.77
2019-03-09T23:52:02.933Z,7.70
2019-03-09T23:54:41.157Z,8.30
2019-03-09T23:57:15.639Z,8.27
2019-03-09T23:59:51.952Z,8.13
